»·PEaware :: N681DW KBOI-KRNO

N681DW :: KBOI-KRNO

FLIGHT INFORMATION

Flight Status: Arrived
Operator: Privately registered:
United States
More flights under this callsign
Pilot: David D. (7607)
Aircraft: PIPER PA-28R-201 ARROW
(P28R)
More flights by this aircraft type
Origin: KBOI Boise Air Terminal/Gowen
United States
Destination: KRNO Reno/Tahoe Intl
United States
More flights between these airports :: More routes between these airports
Route: +BOI3 V113 FMG
File this flight plan on PilotEdge
Remarks:
Altitude:
(Current/Filed)
14,000ft
Speed:
(Current/Filed)
138kts
Departed: 14-May-18 03:08 PM
Arrived: 14-May-18 05:40 PM
Distance/Time
Traveled:
291nm/2:32
Distance/Time
To Go:
Arrived

Flight Plot

Page will automatically refresh every two minutes.

Flight plan parsing failed; only flown route is shown


Map Options




Map Legend


Flown Route
Filed Route
Departure Airport
Arrival Airport
Navaid (VOR, NDB)
Fix

Horizontal Profiles

Position Reports

Time Latitude Longitude Heading Altitude Ground
Speed
14-May-18 14:42 43.569103 -116.227344 183 2839ft 0kts
14-May-18 14:43 43.569103 -116.227344 183 2839ft 0kts
14-May-18 14:44 43.569103 -116.227344 183 2839ft 0kts
14-May-18 14:45 43.569103 -116.227344 183 2839ft 0kts
14-May-18 14:46 43.569103 -116.227344 183 2839ft 0kts
14-May-18 14:47 43.569103 -116.227344 183 2839ft 0kts
14-May-18 14:48 43.569103 -116.227344 183 2839ft 0kts
14-May-18 14:49 43.569103 -116.227344 183 2839ft 0kts
14-May-18 14:50 43.569103 -116.227344 183 2839ft 0kts
14-May-18 14:51 43.569103 -116.227344 183 2839ft 0kts
14-May-18 14:52 43.569103 -116.227344 183 2839ft 0kts
14-May-18 14:53 43.569103 -116.227344 183 2839ft 0kts
14-May-18 14:54 43.569103 -116.227344 183 2839ft 0kts
14-May-18 14:55 43.569103 -116.227344 183 2839ft 0kts
14-May-18 14:56 43.569103 -116.227344 183 2839ft 0kts
14-May-18 14:57 43.569103 -116.227344 183 2839ft 0kts
14-May-18 14:58 43.568964 -116.227409 231 2839ft 7kts
14-May-18 14:59 43.569437 -116.230920 293 2833ft 24kts
14-May-18 15:00 43.570786 -116.235764 234 2824ft 0kts
14-May-18 15:01 43.570786 -116.235764 234 2824ft 0kts
14-May-18 15:02 43.570786 -116.235764 234 2824ft 0kts
14-May-18 15:03 43.570786 -116.235764 234 2824ft 0kts
14-May-18 15:04 43.570786 -116.235764 234 2824ft 0kts
14-May-18 15:05 43.570786 -116.235764 234 2824ft 0kts
14-May-18 15:06 43.570786 -116.235764 234 2824ft 0kts
14-May-18 15:07 43.570069 -116.235808 135 2825ft 13kts
14-May-18 15:08 43.560726 -116.213370 113 3253ft 93kts
14-May-18 15:09 43.547889 -116.181069 122 4304ft 108kts
14-May-18 15:10 43.529859 -116.144925 121 5287ft 118kts
14-May-18 15:11 43.511760 -116.107245 119 6323ft 118kts
14-May-18 15:12 43.495711 -116.073598 129 7090ft 88kts
14-May-18 15:13 43.473141 -116.078772 208 7532ft 102kts
14-May-18 15:14 43.451010 -116.108815 250 8021ft 129kts
14-May-18 15:15 43.438849 -116.157952 256 8482ft 140kts
14-May-18 15:16 43.427735 -116.206550 256 9280ft 123kts
14-May-18 15:17 43.417800 -116.248512 256 10161ft 108kts
14-May-18 15:18 43.408638 -116.284735 256 11025ft 92kts
14-May-18 15:19 43.399228 -116.321178 256 11495ft 115kts
14-May-18 15:20 43.390058 -116.367115 256 11998ft 130kts
14-May-18 15:21 43.383144 -116.414037 256 12759ft 115kts
14-May-18 15:22 43.376967 -116.453191 233 13463ft 98kts
14-May-18 15:23 43.363127 -116.490394 239 13827ft 122kts
14-May-18 15:24 43.347991 -116.537056 241 13986ft 149kts
14-May-18 15:25 43.329442 -116.589368 227 13984ft 158kts
14-May-18 15:26 43.301902 -116.638438 227 13982ft 165kts
14-May-18 15:27 43.274420 -116.686985 226 13979ft 167kts
14-May-18 15:28 43.245943 -116.737145 226 13987ft 166kts
14-May-18 15:29 43.217448 -116.787236 226 13988ft 167kts
14-May-18 15:30 43.188962 -116.837225 226 13988ft 167kts
14-May-18 15:31 43.160317 -116.887399 226 13988ft 167kts
14-May-18 15:32 43.131657 -116.937530 226 13988ft 167kts
14-May-18 15:33 43.102929 -116.987687 226 13989ft 167kts
14-May-18 15:34 43.074260 -117.037655 226 13989ft 167kts
14-May-18 15:35 43.045430 -117.087821 226 13989ft 167kts
14-May-18 15:36 43.016539 -117.138007 226 13989ft 168kts
14-May-18 15:37 42.987721 -117.187979 226 13989ft 168kts
14-May-18 15:38 42.958998 -117.237709 226 14014ft 167kts
14-May-18 15:39 42.929933 -117.287927 226 14016ft 170kts
14-May-18 15:40 42.900466 -117.338776 226 14007ft 172kts
14-May-18 15:41 42.871363 -117.388900 226 14009ft 172kts
14-May-18 15:42 42.841589 -117.440095 226 14009ft 173kts
14-May-18 15:43 42.811700 -117.491399 226 14009ft 173kts
14-May-18 15:44 42.781744 -117.542726 226 14009ft 173kts
14-May-18 15:45 42.751768 -117.594000 226 14010ft 173kts
14-May-18 15:46 42.721819 -117.645140 226 14010ft 173kts
14-May-18 15:47 42.692301 -117.695462 225 14007ft 172kts
14-May-18 15:48 42.662387 -117.746363 225 14007ft 172kts
14-May-18 15:49 42.632399 -117.797306 225 14007ft 172kts
14-May-18 15:50 42.602431 -117.848130 225 14007ft 172kts
14-May-18 15:51 42.563174 -117.871400 181 14007ft 160kts
14-May-18 15:52 42.519167 -117.878318 180 14007ft 160kts
14-May-18 15:53 42.477079 -117.884441 180 14007ft 160kts
14-May-18 15:54 42.435948 -117.890334 180 14007ft 160kts
14-May-18 15:55 42.394918 -117.896188 180 14007ft 160kts
14-May-18 15:56 42.354327 -117.901970 180 14007ft 160kts
14-May-18 15:57 42.319368 -117.906944 180 14007ft 160kts
14-May-18 15:58 42.285247 -117.911802 180 14007ft 160kts
14-May-18 15:59 42.251672 -117.916560 180 14007ft 160kts
14-May-18 16:00 42.218902 -117.921204 180 14006ft 160kts
14-May-18 16:01 42.179746 -117.926754 180 14006ft 158kts
14-May-18 16:02 42.135679 -117.932949 181 14007ft 162kts
14-May-18 16:03 42.096258 -117.938516 182 14008ft 168kts
14-May-18 16:04 42.057971 -117.943996 181 14009ft 173kts
14-May-18 16:05 42.020366 -117.949290 180 14008ft 172kts
14-May-18 16:06 41.981535 -117.954713 180 13981ft 168kts
14-May-18 16:07 41.941165 -117.960399 180 13953ft 163kts
14-May-18 16:08 41.902392 -117.965844 180 13952ft 160kts
14-May-18 16:09 41.865958 -117.970947 180 13954ft 160kts
14-May-18 16:10 41.828948 -117.976128 180 13954ft 160kts
14-May-18 16:11 41.793816 -117.981042 180 13954ft 160kts
14-May-18 16:12 41.760034 -117.985763 180 13954ft 160kts
14-May-18 16:13 41.726680 -117.990419 180 13954ft 160kts
14-May-18 16:14 41.691560 -117.995317 180 13954ft 160kts
14-May-18 16:15 41.657142 -118.000110 180 13954ft 160kts
14-May-18 16:16 41.621314 -118.005076 181 13954ft 159kts
14-May-18 16:17 41.582063 -118.010570 181 13971ft 156kts
14-May-18 16:18 41.543451 -118.015926 180 13980ft 158kts
14-May-18 16:19 41.503643 -118.021436 180 13983ft 159kts
14-May-18 16:20 41.463852 -118.026953 180 13981ft 159kts
14-May-18 16:21 41.422750 -118.032579 180 13980ft 159kts
14-May-18 16:22 41.384125 -118.055520 207 13980ft 167kts
14-May-18 16:23 41.346672 -118.088787 208 13980ft 167kts
14-May-18 16:24 41.309985 -118.121481 208 13980ft 167kts
14-May-18 16:25 41.297617 -118.132501 208 13979ft 167kts
14-May-18 16:26 41.264720 -118.161784 208 13981ft 167kts
14-May-18 16:27 41.226881 -118.195429 208 13982ft 167kts
14-May-18 16:28 41.189236 -118.228854 207 13980ft 167kts
14-May-18 16:29 41.151147 -118.262629 208 13980ft 167kts
14-May-18 16:30 41.113247 -118.296177 208 13982ft 167kts
14-May-18 16:31 41.074928 -118.330055 208 13980ft 167kts
14-May-18 16:32 41.036309 -118.364150 208 13982ft 167kts
14-May-18 16:33 40.997594 -118.398281 207 13979ft 167kts
14-May-18 16:34 40.958868 -118.432367 208 13978ft 168kts
14-May-18 16:35 40.920365 -118.466213 208 13983ft 168kts
14-May-18 16:36 40.884893 -118.497360 208 13981ft 168kts
14-May-18 16:37 40.846454 -118.531050 208 13981ft 168kts
14-May-18 16:38 40.807922 -118.564790 208 13983ft 168kts
14-May-18 16:39 40.769644 -118.598250 208 13983ft 168kts
14-May-18 16:40 40.730923 -118.632039 208 13983ft 168kts
14-May-18 16:41 40.695221 -118.663175 207 13980ft 168kts
14-May-18 16:42 40.660760 -118.693184 207 13980ft 168kts
14-May-18 16:43 40.625626 -118.723732 207 13980ft 168kts
14-May-18 16:44 40.590295 -118.754409 207 13980ft 168kts
14-May-18 16:45 40.554731 -118.785216 208 13980ft 165kts
14-May-18 16:46 40.519825 -118.815485 208 13980ft 163kts
14-May-18 16:47 40.484770 -118.845887 207 13980ft 163kts
14-May-18 16:48 40.449058 -118.876672 207 13980ft 166kts
14-May-18 16:49 40.413060 -118.907710 207 13980ft 167kts
14-May-18 16:50 40.377571 -118.938290 207 13980ft 168kts
14-May-18 16:51 40.342460 -118.968507 207 13980ft 168kts
14-May-18 16:52 40.307700 -118.998383 207 13980ft 168kts
14-May-18 16:53 40.272774 -119.028365 207 13980ft 168kts
14-May-18 16:54 40.238379 -119.057806 208 13980ft 167kts
14-May-18 16:55 40.204484 -119.086864 208 13979ft 164kts
14-May-18 16:56 40.171108 -119.115443 208 13979ft 164kts
14-May-18 16:57 40.137481 -119.144124 208 13980ft 168kts
14-May-18 16:58 40.102345 -119.174043 210 13981ft 173kts
14-May-18 16:59 40.068346 -119.202983 212 13981ft 177kts
14-May-18 17:00 40.033446 -119.232721 213 14009ft 178kts
14-May-18 17:01 39.996495 -119.264259 211 14008ft 177kts
14-May-18 17:02 39.962053 -119.293385 213 14009ft 179kts
14-May-18 17:03 39.927052 -119.323098 213 14007ft 180kts
14-May-18 17:04 39.893475 -119.351555 212 14005ft 180kts
14-May-18 17:05 39.860988 -119.379008 213 14007ft 180kts
14-May-18 17:06 39.827186 -119.407545 213 14009ft 179kts
14-May-18 17:07 39.792967 -119.436424 213 14009ft 180kts
14-May-18 17:08 39.759561 -119.464613 211 14009ft 176kts
14-May-18 17:09 39.726897 -119.492110 211 14005ft 174kts
14-May-18 17:10 39.701776 -119.514201 226 13996ft 176kts
14-May-18 17:11 39.675050 -119.541172 188 14001ft 173kts
14-May-18 17:12 39.645050 -119.560986 214 14008ft 175kts
14-May-18 17:13 39.608438 -119.592292 210 14006ft 174kts
14-May-18 17:14 39.574442 -119.613338 178 13989ft 175kts
14-May-18 17:15 39.535461 -119.613457 177 13989ft 177kts
14-May-18 17:16 39.495759 -119.613232 178 13986ft 177kts
14-May-18 17:17 39.455672 -119.613046 178 13976ft 178kts
14-May-18 17:18 39.413327 -119.612778 179 13502ft 192kts
14-May-18 17:19 39.377914 -119.611404 177 13112ft 175kts
14-May-18 17:20 39.332480 -119.608781 177 12535ft 166kts
14-May-18 17:21 39.289192 -119.606616 177 11969ft 163kts
14-May-18 17:22 39.248000 -119.605232 177 11424ft 161kts
14-May-18 17:23 39.206210 -119.604240 177 10988ft 152kts
14-May-18 17:24 39.171163 -119.615582 251 11021ft 142kts
14-May-18 17:25 39.169854 -119.661974 269 11029ft 128kts
14-May-18 17:26 39.172946 -119.703928 313 11023ft 127kts
14-May-18 17:27 39.194736 -119.731751 318 10595ft 135kts
14-May-18 17:28 39.217665 -119.760025 318 10132ft 129kts
14-May-18 17:29 39.244974 -119.769771 1 9835ft 110kts
14-May-18 17:30 39.272198 -119.769890 2 9324ft 112kts
14-May-18 17:31 39.299334 -119.769816 2 8728ft 112kts
14-May-18 17:32 39.327142 -119.769742 2 8094ft 113kts
14-May-18 17:33 39.355471 -119.769663 2 7439ft 104kts
14-May-18 17:34 39.380230 -119.769593 2 6853ft 93kts
14-May-18 17:35 39.402057 -119.769527 2 6346ft 87kts
14-May-18 17:36 39.423335 -119.769469 2 5859ft 87kts
14-May-18 17:37 39.444645 -119.769404 3 5373ft 85kts
14-May-18 17:38 39.465000 -119.769362 3 4908ft 83kts
14-May-18 17:39 39.486031 -119.769558 6 4482ft 78kts
14-May-18 17:40 39.496360 -119.769276 3 4402ft 17kts

Navigation Log

Ident Type
Flight plan parsing failed, navigation log unavailable